Time;durP1;ratioP1;P1;durP2;ratioP2;P2;SDS_P1;SDS_P2;PMS_P1;PMS_P2;Temp;Humidity;BMP_temperature;BMP_pressure;BME280_temperature;BME280_humidity;BME280_pressure;Samples;Min_cycle;Max_cycle;Signal;HPM_P1;HPM_P2
2022/08/05 00:00:33;;;;;;;;;3.00;3.00;;;;;;;;5053835;28;47440;-66
2022/08/05 00:02:59;;;;;;;;;2.75;2.75;;;;;;;;5053776;28;46307;-68
2022/08/05 00:05:24;;;;;;;;;5.00;3.00;;;;;;;;5053868;28;45414;-68
2022/08/05 00:07:49;;;;;;;;;5.00;4.00;;;;;;;;5071818;28;45389;-66
2022/08/05 00:10:14;;;;;;;;;5.00;4.00;;;;;;;;5071820;28;45583;-67
2022/08/05 00:12:39;;;;;;;;;2.00;2.00;;;;;;;;5071809;28;45436;-67
2022/08/05 00:15:05;;;;;;;;;2.00;0.75;;;;;;;;5074694;28;45521;-67
2022/08/05 00:17:30;;;;;;;;;4.75;1.50;;;;;;;;5074822;28;45400;-66
2022/08/05 00:19:55;;;;;;;;;2.00;2.00;;;;;;;;5074624;27;45465;-67
2022/08/05 00:22:20;;;;;;;;;3.00;3.00;;;;;;;;5074775;28;45337;-68
2022/08/05 00:24:46;;;;;;;;;2.00;2.00;;;;;;;;5074875;28;45249;-67
2022/08/05 00:27:11;;;;;;;;;3.50;3.50;;;;;;;;5074749;28;45445;-66
2022/08/05 00:29:36;;;;;;;;;2.75;2.75;;;;;;;;5056317;27;47664;-67
2022/08/05 00:32:03;;;;;;;;;2.50;2.50;;;;;;;;5074756;28;45404;-66
2022/08/05 00:34:28;;;;;;;;;1.75;1.75;;;;;;;;5074930;28;45452;-67
2022/08/05 00:36:53;;;;;;;;;3.75;3.25;;;;;;;;5056462;28;45418;-67
2022/08/05 00:39:18;;;;;;;;;2.50;2.50;;;;;;;;5074491;28;45297;-68
2022/08/05 00:41:44;;;;;;;;;2.75;2.75;;;;;;;;5074704;28;45316;-67
2022/08/05 00:44:09;;;;;;;;;4.75;3.75;;;;;;;;5074573;28;45395;-67
2022/08/05 00:46:35;;;;;;;;;5.25;3.75;;;;;;;;5074635;28;45304;-67
2022/08/05 00:49:00;;;;;;;;;4.50;3.00;;;;;;;;5074339;28;46418;-66
2022/08/05 00:51:25;;;;;;;;;2.50;2.50;;;;;;;;5056094;28;46061;-66
2022/08/05 00:53:50;;;;;;;;;4.00;3.00;;;;;;;;5074683;28;45339;-66
2022/08/05 00:56:16;;;;;;;;;4.00;4.00;;;;;;;;5074562;28;45406;-66
2022/08/05 00:58:41;;;;;;;;;5.50;4.25;;;;;;;;5056211;28;46702;-67
2022/08/05 01:01:08;;;;;;;;;3.00;2.00;;;;;;;;5055973;28;46163;-68
2022/08/05 01:03:33;;;;;;;;;4.25;1.75;;;;;;;;5074454;28;45424;-68
2022/08/05 01:05:58;;;;;;;;;3.00;3.00;;;;;;;;5074284;28;45508;-67
2022/08/05 01:08:24;;;;;;;;;3.00;3.00;;;;;;;;5055910;28;47707;-66
2022/08/05 01:11:12;;;;;;;;;2.25;2.25;;;;;;;;5056117;27;45934;-66
2022/08/05 01:13:40;;;;;;;;;3.75;3.75;;;;;;;;5074063;28;45466;-66
2022/08/05 01:16:09;;;;;;;;;4.00;2.25;;;;;;;;5074267;28;45512;-68
2022/08/05 01:18:39;;;;;;;;;2.25;2.00;;;;;;;;5073824;27;45756;-67
2022/08/05 01:21:07;;;;;;;;;4.25;3.25;;;;;;;;5073971;28;45424;-67
2022/08/05 01:23:39;;;;;;;;;2.50;2.00;;;;;;;;5055909;28;45377;-67
2022/08/05 01:26:19;;;;;;;;;3.75;3.75;;;;;;;;5072346;28;45479;-68
2022/08/05 01:28:54;;;;;;;;;4.75;4.75;;;;;;;;5073755;28;45586;-67
2022/08/05 01:31:19;;;;;;;;;4.50;4.00;;;;;;;;5055703;28;45448;-68
2022/08/05 01:33:50;;;;;;;;;5.75;4.75;;;;;;;;5074005;28;45608;-67
2022/08/05 01:36:16;;;;;;;;;4.25;4.25;;;;;;;;5055772;28;45450;-68
2022/08/05 01:38:42;;;;;;;;;4.50;4.50;;;;;;;;5073548;28;46129;-68
2022/08/05 01:41:08;;;;;;;;;3.00;3.00;;;;;;;;5074086;28;45383;-67
2022/08/05 01:43:34;;;;;;;;;3.25;2.50;;;;;;;;5055513;28;45413;-66
2022/08/05 01:45:59;;;;;;;;;3.00;3.00;;;;;;;;5055641;28;45379;-66
2022/08/05 01:48:26;;;;;;;;;5.25;3.00;;;;;;;;5073497;28;45395;-67
2022/08/05 01:50:52;;;;;;;;;4.75;4.75;;;;;;;;5073692;28;46122;-67
2022/08/05 01:53:20;;;;;;;;;2.00;2.00;;;;;;;;5073733;28;45316;-67
2022/08/05 01:55:46;;;;;;;;;2.75;2.75;;;;;;;;5073573;28;45456;-67
2022/08/05 01:58:12;;;;;;;;;4.25;2.75;;;;;;;;5073315;28;46388;-67
2022/08/05 02:00:40;;;;;;;;;4.00;3.00;;;;;;;;5055216;28;46233;-67
2022/08/05 02:03:26;;;;;;;;;4.25;3.00;;;;;;;;5073603;28;45428;-65
2022/08/05 02:05:52;;;;;;;;;7.00;4.00;;;;;;;;5055106;27;45518;-66
2022/08/05 02:08:18;;;;;;;;;3.50;3.50;;;;;;;;5073230;28;45594;-66
2022/08/05 02:10:47;;;;;;;;;2.00;2.00;;;;;;;;5073274;28;45477;-67
2022/08/05 02:13:15;;;;;;;;;2.50;2.50;;;;;;;;5073399;28;45392;-67
2022/08/05 02:15:42;;;;;;;;;4.00;4.00;;;;;;;;5073275;28;45374;-67
2022/08/05 02:18:18;;;;;;;;;2.75;2.75;;;;;;;;5072954;27;45408;-66
2022/08/05 02:20:48;;;;;;;;;2.75;2.00;;;;;;;;5073137;28;45417;-66
2022/08/05 02:23:14;;;;;;;;;3.50;3.50;;;;;;;;5073362;28;45390;-67
2022/08/05 02:25:42;;;;;;;;;3.00;3.00;;;;;;;;5073170;28;45393;-67
2022/08/05 02:28:07;;;;;;;;;3.25;3.25;;;;;;;;5054885;27;48868;-67
2022/08/05 02:30:42;;;;;;;;;5.00;4.00;;;;;;;;5073093;28;45507;-67
2022/08/05 02:33:08;;;;;;;;;4.00;4.00;;;;;;;;5073332;28;45410;-66
2022/08/05 02:35:34;;;;;;;;;3.00;3.00;;;;;;;;5073241;28;45374;-65
2022/08/05 02:38:00;;;;;;;;;3.50;2.25;;;;;;;;5072317;28;45956;-65
2022/08/05 02:40:26;;;;;;;;;5.00;4.00;;;;;;;;5073113;28;45359;-66
2022/08/05 02:42:52;;;;;;;;;3.50;2.00;;;;;;;;5054892;28;45372;-66
2022/08/05 02:45:18;;;;;;;;;2.50;2.50;;;;;;;;5073091;28;45488;-66
2022/08/05 02:47:45;;;;;;;;;5.75;4.00;;;;;;;;5072793;28;46633;-66
2022/08/05 02:50:12;;;;;;;;;2.50;2.50;;;;;;;;5072927;28;45507;-67
2022/08/05 02:52:39;;;;;;;;;4.00;2.75;;;;;;;;5073065;28;45498;-66
2022/08/05 02:55:05;;;;;;;;;3.00;3.00;;;;;;;;5072988;28;45363;-66
2022/08/05 02:57:30;;;;;;;;;2.00;2.00;;;;;;;;5072615;28;45480;-66
2022/08/05 02:59:56;;;;;;;;;2.50;2.50;;;;;;;;5072856;28;45429;-65
2022/08/05 03:02:23;;;;;;;;;5.25;5.25;;;;;;;;5054716;28;45409;-66
2022/08/05 03:04:50;;;;;;;;;2.50;2.50;;;;;;;;5072786;28;45389;-66
2022/08/05 03:07:17;;;;;;;;;5.00;3.25;;;;;;;;5072644;28;46457;-66
2022/08/05 03:09:43;;;;;;;;;4.00;3.00;;;;;;;;5054299;28;45468;-66
2022/08/05 03:12:08;;;;;;;;;4.00;4.00;;;;;;;;5054477;28;45428;-66
2022/08/05 03:14:33;;;;;;;;;3.25;3.25;;;;;;;;5072590;28;45421;-66
2022/08/05 03:16:59;;;;;;;;;3.25;2.75;;;;;;;;5072565;28;46199;-66
2022/08/05 03:19:25;;;;;;;;;2.75;2.75;;;;;;;;5072502;27;45475;-65
2022/08/05 03:21:50;;;;;;;;;3.50;3.50;;;;;;;;5072798;28;45455;-66
2022/08/05 03:24:17;;;;;;;;;3.50;3.50;;;;;;;;5072591;28;45432;-66
2022/08/05 03:26:42;;;;;;;;;3.00;3.00;;;;;;;;5072256;28;46465;-67
2022/08/05 03:29:07;;;;;;;;;5.50;3.75;;;;;;;;5072453;28;45373;-66
2022/08/05 03:31:33;;;;;;;;;5.25;4.25;;;;;;;;5072576;28;45421;-66
2022/08/05 03:33:58;;;;;;;;;4.50;3.50;;;;;;;;5072530;28;45310;-66
2022/08/05 03:36:24;;;;;;;;;6.00;4.25;;;;;;;;5072432;28;46417;-66
2022/08/05 03:38:49;;;;;;;;;2.50;2.50;;;;;;;;5054189;27;46488;-66
2022/08/05 03:41:15;;;;;;;;;3.25;3.25;;;;;;;;5054394;27;45398;-66
2022/08/05 03:43:40;;;;;;;;;3.00;3.00;;;;;;;;5072376;28;45421;-66
2022/08/05 03:46:05;;;;;;;;;6.00;4.75;;;;;;;;5053818;28;47464;-66
2022/08/05 03:48:30;;;;;;;;;4.50;4.50;;;;;;;;5052686;28;45437;-65
2022/08/05 03:50:59;;;;;;;;;2.75;2.00;;;;;;;;5072126;28;45368;-66
2022/08/05 03:53:31;;;;;;;;;4.00;3.50;;;;;;;;5072274;28;45367;-66
2022/08/05 03:56:03;;;;;;;;;3.25;3.25;;;;;;;;5072120;28;46288;-66
2022/08/05 03:58:29;;;;;;;;;3.25;3.25;;;;;;;;5072184;28;45277;-66
2022/08/05 04:00:57;;;;;;;;;2.00;2.00;;;;;;;;5072135;28;45334;-66
2022/08/05 04:03:24;;;;;;;;;4.00;4.00;;;;;;;;5072012;28;45395;-66
2022/08/05 04:05:49;;;;;;;;;3.75;2.75;;;;;;;;5071895;28;45718;-65
2022/08/05 04:08:15;;;;;;;;;3.50;2.00;;;;;;;;5071740;28;45435;-66
2022/08/05 04:10:42;;;;;;;;;4.00;4.00;;;;;;;;5053782;28;45891;-66
2022/08/05 04:13:07;;;;;;;;;4.50;3.75;;;;;;;;5053876;28;45375;-66
2022/08/05 04:15:33;;;;;;;;;3.00;3.00;;;;;;;;5071615;28;45639;-66
2022/08/05 04:18:00;;;;;;;;;3.50;3.50;;;;;;;;5053565;27;46217;-66
2022/08/05 04:20:26;;;;;;;;;2.75;2.00;;;;;;;;5053854;27;45383;-66
2022/08/05 04:22:51;;;;;;;;;5.00;4.00;;;;;;;;5071657;28;45442;-67
2022/08/05 04:25:16;;;;;;;;;3.50;3.50;;;;;;;;5053406;28;47484;-66
2022/08/05 04:27:41;;;;;;;;;3.75;3.25;;;;;;;;5071410;28;45425;-66
2022/08/05 04:30:07;;;;;;;;;4.00;4.00;;;;;;;;5071632;28;45453;-66
2022/08/05 04:32:33;;;;;;;;;3.25;2.50;;;;;;;;5053445;28;45445;-66
2022/08/05 04:34:58;;;;;;;;;3.25;3.25;;;;;;;;5071137;28;45484;-67
2022/08/05 04:37:23;;;;;;;;;3.00;2.75;;;;;;;;5071454;28;45531;-66
2022/08/05 04:39:48;;;;;;;;;4.50;3.25;;;;;;;;5071532;28;45513;-65
2022/08/05 04:42:14;;;;;;;;;3.00;3.00;;;;;;;;5071392;27;45407;-65
2022/08/05 04:44:39;;;;;;;;;3.75;3.75;;;;;;;;5071214;28;45559;-66
2022/08/05 04:47:04;;;;;;;;;4.25;3.00;;;;;;;;5071426;28;45570;-66
2022/08/05 04:49:29;;;;;;;;;3.50;3.50;;;;;;;;5071349;28;45366;-66
2022/08/05 04:51:54;;;;;;;;;5.00;3.00;;;;;;;;5071363;28;45412;-66
2022/08/05 04:54:21;;;;;;;;;4.50;4.50;;;;;;;;5071127;28;45486;-66
2022/08/05 04:56:46;;;;;;;;;3.25;3.25;;;;;;;;5071177;28;45434;-64
2022/08/05 04:59:13;;;;;;;;;3.00;3.00;;;;;;;;5053101;28;45377;-66
2022/08/05 05:01:38;;;;;;;;;4.50;3.75;;;;;;;;5074432;28;45305;-67
2022/08/05 05:04:03;;;;;;;;;3.50;3.50;;;;;;;;5074046;28;45969;-66
2022/08/05 05:06:28;;;;;;;;;3.75;3.75;;;;;;;;5074355;28;45430;-65
2022/08/05 05:08:54;;;;;;;;;0.50;0.50;;;;;;;;5074435;28;45412;-65
2022/08/05 05:11:19;;;;;;;;;4.50;4.50;;;;;;;;5056106;28;45525;-66
2022/08/05 05:13:44;;;;;;;;;6.25;4.00;;;;;;;;5074094;28;46144;-66
2022/08/05 05:16:09;;;;;;;;;4.50;4.00;;;;;;;;5074100;28;45630;-67
2022/08/05 05:18:34;;;;;;;;;7.25;5.50;;;;;;;;5056067;27;45348;-66
2022/08/05 05:21:00;;;;;;;;;7.75;6.25;;;;;;;;5074147;28;45351;-66
2022/08/05 05:23:26;;;;;;;;;4.75;4.75;;;;;;;;5073933;28;46347;-66
2022/08/05 05:25:51;;;;;;;;;7.00;7.00;;;;;;;;5055830;28;45467;-66
2022/08/05 05:28:16;;;;;;;;;5.00;4.00;;;;;;;;5074149;28;45490;-65
2022/08/05 05:30:41;;;;;;;;;5.50;3.50;;;;;;;;5074117;28;45369;-65
2022/08/05 05:33:07;;;;;;;;;9.00;7.00;;;;;;;;5073952;28;46119;-64
2022/08/05 05:35:32;;;;;;;;;5.25;4.00;;;;;;;;5073909;28;45509;-65
2022/08/05 05:37:59;;;;;;;;;4.75;4.75;;;;;;;;5074093;28;45422;-65
2022/08/05 05:40:24;;;;;;;;;5.00;3.25;;;;;;;;5074163;28;45500;-65
2022/08/05 05:42:50;;;;;;;;;6.50;6.50;;;;;;;;5073648;28;45400;-66
2022/08/05 05:45:16;;;;;;;;;5.25;3.75;;;;;;;;5073863;28;45465;-66
2022/08/05 05:47:42;;;;;;;;;6.00;4.50;;;;;;;;5074078;28;45418;-66
2022/08/05 05:50:08;;;;;;;;;3.50;3.50;;;;;;;;5074004;28;45401;-66
2022/08/05 05:52:34;;;;;;;;;4.00;4.00;;;;;;;;5073619;28;45814;-65
2022/08/05 05:55:00;;;;;;;;;3.75;3.50;;;;;;;;5073655;28;45569;-66
2022/08/05 05:57:25;;;;;;;;;5.25;3.75;;;;;;;;5073778;28;45373;-66
2022/08/05 05:59:50;;;;;;;;;5.75;5.75;;;;;;;;5055707;28;45562;-65
2022/08/05 06:02:16;;;;;;;;;5.25;5.25;;;;;;;;5055288;28;48519;-65
2022/08/05 06:04:41;;;;;;;;;4.50;4.25;;;;;;;;5073769;28;45413;-65
2022/08/05 06:07:06;;;;;;;;;9.00;7.50;;;;;;;;5055592;28;45428;-67
2022/08/05 06:09:31;;;;;;;;;4.00;4.00;;;;;;;;5073481;28;45493;-66
2022/08/05 06:11:56;;;;;;;;;3.75;3.75;;;;;;;;5072608;28;46375;-66
2022/08/05 06:14:22;;;;;;;;;10.00;7.00;;;;;;;;5073410;28;45368;-66
2022/08/05 06:16:47;;;;;;;;;6.50;5.25;;;;;;;;5073580;28;45420;-66
2022/08/05 06:19:12;;;;;;;;;5.00;4.50;;;;;;;;5073530;28;45864;-65
2022/08/05 06:21:37;;;;;;;;;7.00;5.50;;;;;;;;5055098;28;48117;-65
2022/08/05 06:24:03;;;;;;;;;6.75;5.25;;;;;;;;5073371;28;45423;-66
2022/08/05 06:26:28;;;;;;;;;4.25;4.25;;;;;;;;5073150;28;45483;-66
2022/08/05 06:28:53;;;;;;;;;8.00;7.00;;;;;;;;5055025;28;45411;-66
2022/08/05 06:31:18;;;;;;;;;4.50;4.50;;;;;;;;5073171;28;45574;-66
2022/08/05 06:33:44;;;;;;;;;4.75;4.75;;;;;;;;5051645;27;45504;-65
2022/08/05 06:36:09;;;;;;;;;6.50;6.50;;;;;;;;5063583;28;45631;-65
2022/08/05 06:38:34;;;;;;;;;6.50;6.50;;;;;;;;5059324;28;45577;-66
2022/08/05 06:41:00;;;;;;;;;7.25;6.50;;;;;;;;5069147;27;45468;-65
2022/08/05 06:43:25;;;;;;;;;3.50;3.50;;;;;;;;5062929;27;45405;-66
2022/08/05 06:45:51;;;;;;;;;6.00;5.00;;;;;;;;5057409;28;45467;-66
2022/08/05 06:48:16;;;;;;;;;6.75;4.75;;;;;;;;5060536;28;45374;-65
2022/08/05 06:50:41;;;;;;;;;9.75;6.75;;;;;;;;5054492;28;46577;-67
2022/08/05 06:53:06;;;;;;;;;5.75;5.75;;;;;;;;5069633;27;45583;-67
2022/08/05 06:55:31;;;;;;;;;3.00;3.00;;;;;;;;5060013;28;45369;-66
2022/08/05 06:57:57;;;;;;;;;6.00;6.00;;;;;;;;5053077;28;45332;-65
2022/08/05 07:00:22;;;;;;;;;6.00;6.00;;;;;;;;5072498;28;45807;-66
2022/08/05 07:02:47;;;;;;;;;5.25;5.25;;;;;;;;5054414;28;45779;-65
2022/08/05 07:05:12;;;;;;;;;7.25;4.00;;;;;;;;5072778;28;45405;-67
2022/08/05 07:07:38;;;;;;;;;5.00;5.00;;;;;;;;5072881;28;45446;-67
2022/08/05 07:10:04;;;;;;;;;5.00;5.00;;;;;;;;5072497;28;46306;-66
2022/08/05 07:17:56;;;;;;;;;3.50;3.00;;;;;;;;5072435;27;45359;-63
2022/08/05 07:20:22;;;;;;;;;7.50;7.50;;;;;;;;5054263;27;48515;-64
2022/08/05 07:22:47;;;;;;;;;5.00;5.00;;;;;;;;5072462;28;45365;-64
2022/08/05 07:25:12;;;;;;;;;5.50;5.50;;;;;;;;5072588;28;45268;-63
2022/08/05 07:27:37;;;;;;;;;5.00;5.00;;;;;;;;5072233;28;45365;-65
2022/08/05 07:30:03;;;;;;;;;5.50;4.00;;;;;;;;5072487;28;46648;-64
2022/08/05 07:32:28;;;;;;;;;4.00;4.00;;;;;;;;5072717;28;45412;-64
2022/08/05 07:34:53;;;;;;;;;7.00;7.00;;;;;;;;5072454;28;45424;-65
2022/08/05 07:37:18;;;;;;;;;6.75;6.75;;;;;;;;5054277;28;45374;-65
2022/08/05 07:39:44;;;;;;;;;6.00;6.00;;;;;;;;5072009;28;45863;-66
2022/08/05 07:42:09;;;;;;;;;7.25;7.25;;;;;;;;5072151;28;45407;-66
2022/08/05 07:44:34;;;;;;;;;5.50;5.50;;;;;;;;5054022;28;45419;-65
2022/08/05 07:46:59;;;;;;;;;9.50;8.50;;;;;;;;5072392;28;45415;-64
2022/08/05 07:49:24;;;;;;;;;1.75;1.25;;;;;;;;5072002;28;45811;-65
2022/08/05 07:51:49;;;;;;;;;9.25;7.50;;;;;;;;5072203;28;45491;-65
2022/08/05 07:54:15;;;;;;;;;7.75;6.50;;;;;;;;5072239;28;45456;-65
2022/08/05 07:56:40;;;;;;;;;9.00;8.00;;;;;;;;5071926;28;45409;-65
2022/08/05 07:59:05;;;;;;;;;8.50;8.50;;;;;;;;5071833;28;45540;-65
2022/08/05 08:01:30;;;;;;;;;6.00;6.00;;;;;;;;5071996;28;45467;-63
2022/08/05 08:03:55;;;;;;;;;11.00;8.25;;;;;;;;5071986;28;45324;-64
2022/08/05 08:06:21;;;;;;;;;9.00;7.75;;;;;;;;5071946;28;45406;-65
2022/08/05 08:08:46;;;;;;;;;7.00;7.00;;;;;;;;5071607;28;46044;-64
2022/08/05 08:11:11;;;;;;;;;12.00;8.75;;;;;;;;5053559;28;46309;-65
2022/08/05 08:13:36;;;;;;;;;6.00;5.25;;;;;;;;5071904;28;45331;-65
2022/08/05 08:16:01;;;;;;;;;7.75;6.50;;;;;;;;5072063;28;45354;-66
2022/08/05 08:18:27;;;;;;;;;5.75;5.75;;;;;;;;5071781;28;45628;-65
2022/08/05 08:20:52;;;;;;;;;6.25;6.25;;;;;;;;5071601;28;45492;-65
2022/08/05 08:23:17;;;;;;;;;11.75;7.50;;;;;;;;5071783;28;45468;-66
2022/08/05 08:25:43;;;;;;;;;9.50;6.75;;;;;;;;5053819;28;45603;-65
2022/08/05 08:28:08;;;;;;;;;7.25;7.25;;;;;;;;5071191;28;46901;-65
2022/08/05 08:30:33;;;;;;;;;5.50;5.50;;;;;;;;5071642;28;45277;-63
2022/08/05 08:32:58;;;;;;;;;3.75;3.00;;;;;;;;5071811;28;45387;-65
2022/08/05 08:35:23;;;;;;;;;5.50;5.00;;;;;;;;5073444;28;45515;-64
2022/08/05 08:37:49;;;;;;;;;3.25;3.25;;;;;;;;5074596;28;46283;-66
2022/08/05 08:40:14;;;;;;;;;4.75;4.75;;;;;;;;5074649;28;45358;-66
2022/08/05 08:42:39;;;;;;;;;6.75;5.75;;;;;;;;5074803;28;45468;-67
2022/08/05 08:45:06;;;;;;;;;5.00;5.00;;;;;;;;5074665;28;45272;-66
2022/08/05 08:47:31;;;;;;;;;4.00;4.00;;;;;;;;5056308;27;46382;-66
2022/08/05 08:49:57;;;;;;;;;4.75;4.75;;;;;;;;5074311;28;45380;-66
2022/08/05 08:52:23;;;;;;;;;6.50;4.00;;;;;;;;5074495;28;45466;-65
2022/08/05 08:54:51;;;;;;;;;6.50;6.25;;;;;;;;5056116;28;45340;-66
2022/08/05 08:57:16;;;;;;;;;6.50;4.00;;;;;;;;5074304;28;46614;-65
2022/08/05 08:59:41;;;;;;;;;4.00;3.00;;;;;;;;5074306;28;45371;-64
2022/08/05 09:02:07;;;;;;;;;4.50;3.75;;;;;;;;5074539;28;45301;-65
2022/08/05 09:04:35;;;;;;;;;6.25;5.00;;;;;;;;5074410;28;45417;-65
2022/08/05 09:07:00;;;;;;;;;4.00;4.00;;;;;;;;5074039;28;45662;-65
2022/08/05 09:09:25;;;;;;;;;4.00;4.00;;;;;;;;5073976;28;45374;-64
2022/08/05 09:11:51;;;;;;;;;9.25;6.50;;;;;;;;5074434;28;45340;-65
2022/08/05 09:14:16;;;;;;;;;5.50;5.25;;;;;;;;5055958;28;45374;-66
2022/08/05 09:16:42;;;;;;;;;8.25;5.25;;;;;;;;5073968;28;46195;-65
2022/08/05 09:19:07;;;;;;;;;6.25;5.00;;;;;;;;5073925;27;45332;-65
2022/08/05 09:21:33;;;;;;;;;6.25;6.25;;;;;;;;5074227;28;45524;-64
2022/08/05 09:24:07;;;;;;;;;4.25;3.25;;;;;;;;5074211;28;45359;-65
2022/08/05 09:26:33;;;;;;;;;4.00;4.00;;;;;;;;5073906;28;45882;-65
2022/08/05 09:28:59;;;;;;;;;6.50;5.25;;;;;;;;5073899;28;45500;-64
2022/08/05 09:31:25;;;;;;;;;6.00;5.75;;;;;;;;5055914;28;45311;-65
2022/08/05 09:33:55;;;;;;;;;4.00;4.00;;;;;;;;5073907;28;45407;-66
2022/08/05 09:36:20;;;;;;;;;5.25;5.25;;;;;;;;5073878;28;46535;-66
2022/08/05 09:38:58;;;;;;;;;3.50;3.50;;;;;;;;5074037;28;45717;-65
2022/08/05 09:41:24;;;;;;;;;5.25;5.25;;;;;;;;5073973;28;45308;-65
2022/08/05 09:43:49;;;;;;;;;7.50;6.50;;;;;;;;5073761;28;45336;-65
2022/08/05 09:46:31;;;;;;;;;6.50;6.50;;;;;;;;5072691;28;45492;-65
2022/08/05 09:48:58;;;;;;;;;7.00;7.00;;;;;;;;5073677;28;45385;-65
2022/08/05 09:51:32;;;;;;;;;7.00;6.00;;;;;;;;5073869;28;45431;-65
2022/08/05 09:53:57;;;;;;;;;5.25;5.25;;;;;;;;5055473;27;45526;-65
2022/08/05 09:56:27;;;;;;;;;6.00;5.00;;;;;;;;5055266;28;46359;-65
2022/08/05 09:58:56;;;;;;;;;6.25;5.25;;;;;;;;5073774;28;45379;-65
2022/08/05 10:01:21;;;;;;;;;6.75;6.00;;;;;;;;5074414;28;46128;-65
2022/08/05 10:04:03;;;;;;;;;7.25;7.25;;;;;;;;5073609;28;45460;-64
2022/08/05 10:06:28;;;;;;;;;5.00;5.00;;;;;;;;5055342;28;46847;-64
2022/08/05 10:08:54;;;;;;;;;7.00;7.00;;;;;;;;5055106;28;45412;-64
2022/08/05 10:11:19;;;;;;;;;5.75;5.25;;;;;;;;5073601;28;45432;-65
2022/08/05 10:13:45;;;;;;;;;7.25;7.00;;;;;;;;5073647;28;45451;-65
2022/08/05 10:16:26;;;;;;;;;7.00;4.50;;;;;;;;5073224;28;46412;-64
2022/08/05 10:18:52;;;;;;;;;6.00;6.00;;;;;;;;5054993;28;45761;-63
2022/08/05 10:21:17;;;;;;;;;7.75;6.75;;;;;;;;5073435;28;45356;-64
2022/08/05 10:23:43;;;;;;;;;5.00;4.00;;;;;;;;5073473;28;45304;-64
2022/08/05 10:26:11;;;;;;;;;5.00;5.00;;;;;;;;5073144;28;46179;-63
2022/08/05 10:28:36;;;;;;;;;5.50;5.50;;;;;;;;5073175;28;45427;-63
2022/08/05 10:31:01;;;;;;;;;14.50;13.50;;;;;;;;5073311;28;45400;-64
2022/08/05 10:33:28;;;;;;;;;5.00;5.00;;;;;;;;5073251;28;45398;-63
2022/08/05 10:35:54;;;;;;;;;5.25;5.25;;;;;;;;5073156;28;46579;-64
2022/08/05 10:38:20;;;;;;;;;7.00;5.00;;;;;;;;5073165;28;45424;-64
2022/08/05 10:40:48;;;;;;;;;4.25;4.25;;;;;;;;5073349;28;45298;-64
2022/08/05 10:43:19;;;;;;;;;5.00;4.75;;;;;;;;5073235;28;45342;-64
2022/08/05 10:45:54;;;;;;;;;5.75;5.75;;;;;;;;5072975;28;45761;-64
2022/08/05 10:48:30;;;;;;;;;2.75;2.75;;;;;;;;5073002;28;45341;-63
2022/08/05 10:51:07;;;;;;;;;5.00;5.00;;;;;;;;5073097;28;45570;-64
2022/08/05 10:53:34;;;;;;;;;5.25;4.75;;;;;;;;5072971;28;45428;-63
2022/08/05 10:56:01;;;;;;;;;4.00;3.25;;;;;;;;5072867;28;46634;-63
2022/08/05 10:58:26;;;;;;;;;6.25;6.25;;;;;;;;5054354;28;45476;-63
2022/08/05 11:00:54;;;;;;;;;6.25;5.25;;;;;;;;5073103;28;45491;-64
2022/08/05 11:03:19;;;;;;;;;5.00;5.00;;;;;;;;5073182;28;45457;-63
2022/08/05 11:06:01;;;;;;;;;8.00;4.50;;;;;;;;5072622;28;46426;-63
2022/08/05 11:08:26;;;;;;;;;5.00;5.00;;;;;;;;5054664;28;46288;-63
2022/08/05 11:10:51;;;;;;;;;4.00;4.00;;;;;;;;5054749;28;45429;-63
2022/08/05 11:13:36;;;;;;;;;6.50;6.50;;;;;;;;5073024;28;45461;-63
2022/08/05 11:16:21;;;;;;;;;3.25;3.25;;;;;;;;5072487;28;45406;-64
2022/08/05 11:18:46;;;;;;;;;6.00;5.00;;;;;;;;5072405;27;46043;-64
2022/08/05 11:21:29;;;;;;;;;5.00;5.00;;;;;;;;5072792;28;45365;-63
2022/08/05 11:23:54;;;;;;;;;5.50;5.00;;;;;;;;5072939;28;45435;-63
2022/08/05 11:26:21;;;;;;;;;4.75;4.75;;;;;;;;5054269;27;47467;-64
2022/08/05 11:28:47;;;;;;;;;5.25;5.25;;;;;;;;5072393;28;45475;-64
2022/08/05 11:31:12;;;;;;;;;6.00;6.00;;;;;;;;5054398;28;45483;-63
2022/08/05 11:33:39;;;;;;;;;5.00;5.00;;;;;;;;5072695;28;45456;-63
2022/08/05 11:36:05;;;;;;;;;2.50;1.50;;;;;;;;5072466;28;45767;-63
2022/08/05 11:38:42;;;;;;;;;4.75;4.75;;;;;;;;5072163;28;45389;-63
2022/08/05 11:41:19;;;;;;;;;4.75;4.75;;;;;;;;5072441;28;45428;-63
2022/08/05 11:43:50;;;;;;;;;5.00;5.00;;;;;;;;5072208;28;45444;-63
2022/08/05 11:46:15;;;;;;;;;4.50;4.50;;;;;;;;5072236;28;47160;-64
2022/08/05 11:48:40;;;;;;;;;7.50;7.00;;;;;;;;5071907;28;45354;-64
2022/08/05 11:51:06;;;;;;;;;5.75;4.25;;;;;;;;5054285;27;45326;-64
2022/08/05 11:53:31;;;;;;;;;3.00;3.00;;;;;;;;5072278;28;45522;-63
2022/08/05 11:55:59;;;;;;;;;4.75;4.50;;;;;;;;5054380;27;46042;-64
2022/08/05 11:58:28;;;;;;;;;4.50;4.50;;;;;;;;5072229;28;45468;-62
2022/08/05 12:01:03;;;;;;;;;6.00;4.75;;;;;;;;5053917;27;45399;-63
2022/08/05 12:03:29;;;;;;;;;3.75;3.00;;;;;;;;5071983;28;45366;-62
2022/08/05 12:05:57;;;;;;;;;4.00;4.00;;;;;;;;5071966;28;45535;-64
2022/08/05 12:08:22;;;;;;;;;1.75;1.75;;;;;;;;5072111;28;45374;-64
2022/08/05 12:10:48;;;;;;;;;4.75;4.75;;;;;;;;5070910;28;45342;-63
2022/08/05 12:13:14;;;;;;;;;4.00;4.00;;;;;;;;5072254;28;45619;-63
2022/08/05 12:15:42;;;;;;;;;3.25;3.25;;;;;;;;5071653;28;46519;-63
2022/08/05 12:18:07;;;;;;;;;6.25;5.25;;;;;;;;5052733;28;45461;-62
2022/08/05 12:20:37;;;;;;;;;4.25;4.25;;;;;;;;5071715;28;45769;-63
2022/08/05 12:23:09;;;;;;;;;4.00;4.00;;;;;;;;5071655;28;45336;-62
2022/08/05 12:25:50;;;;;;;;;3.50;3.00;;;;;;;;5064493;28;45477;-64
2022/08/05 12:28:31;;;;;;;;;4.00;4.00;;;;;;;;5069597;28;45438;-64
2022/08/05 12:30:57;;;;;;;;;3.00;3.00;;;;;;;;5071622;28;45436;-63
2022/08/05 12:33:22;;;;;;;;;3.75;2.00;;;;;;;;5071565;28;45482;-62
2022/08/05 12:35:47;;;;;;;;;2.50;2.50;;;;;;;;5053423;27;47244;-64
2022/08/05 12:38:13;;;;;;;;;4.00;4.00;;;;;;;;5071529;28;45417;-63
2022/08/05 12:40:38;;;;;;;;;5.00;4.00;;;;;;;;5068022;27;45538;-64
2022/08/05 12:43:05;;;;;;;;;4.00;4.00;;;;;;;;5071638;28;45357;-64
2022/08/05 12:45:30;;;;;;;;;4.50;4.50;;;;;;;;5052262;28;47744;-64
2022/08/05 12:47:56;;;;;;;;;3.00;3.00;;;;;;;;5070407;28;45467;-63
2022/08/05 12:50:22;;;;;;;;;4.25;4.25;;;;;;;;5071350;28;45396;-63
2022/08/05 12:52:54;;;;;;;;;4.00;4.00;;;;;;;;5071288;28;45451;-63
2022/08/05 12:55:20;;;;;;;;;4.50;4.00;;;;;;;;5052857;27;48487;-63
2022/08/05 12:57:46;;;;;;;;;6.00;5.00;;;;;;;;5071227;28;45340;-63
2022/08/05 13:00:20;;;;;;;;;4.00;4.00;;;;;;;;5071262;28;45389;-63
2022/08/05 13:02:45;;;;;;;;;4.00;4.00;;;;;;;;5053145;27;45522;-64
2022/08/05 13:05:11;;;;;;;;;2.50;2.50;;;;;;;;5052772;27;47707;-63
2022/08/05 13:07:38;;;;;;;;;3.00;3.00;;;;;;;;5070995;28;45432;-63
2022/08/05 13:10:08;;;;;;;;;3.00;3.00;;;;;;;;5071005;28;45435;-63
2022/08/05 13:12:38;;;;;;;;;4.00;2.00;;;;;;;;5052920;28;45537;-64
2022/08/05 13:15:03;;;;;;;;;5.00;5.00;;;;;;;;5070766;28;45850;-64
2022/08/05 13:17:29;;;;;;;;;3.25;2.00;;;;;;;;5070890;28;45462;-63
2022/08/05 13:20:00;;;;;;;;;4.00;4.00;;;;;;;;5070876;27;45411;-63
2022/08/05 13:22:26;;;;;;;;;4.00;4.00;;;;;;;;5074035;28;45388;-62
2022/08/05 13:24:52;;;;;;;;;2.25;2.25;;;;;;;;5074086;28;46232;-62
2022/08/05 13:27:43;;;;;;;;;4.00;3.00;;;;;;;;5074004;28;45376;-63
2022/08/05 13:30:10;;;;;;;;;3.00;3.00;;;;;;;;5074768;28;45460;-62
2022/08/05 13:32:35;;;;;;;;;3.25;3.25;;;;;;;;5074760;28;45517;-64
2022/08/05 13:35:00;;;;;;;;;2.00;2.00;;;;;;;;5074513;28;46735;-63
2022/08/05 13:37:26;;;;;;;;;4.00;3.50;;;;;;;;5074687;28;45575;-64
2022/08/05 13:39:54;;;;;;;;;2.50;2.50;;;;;;;;5075007;28;45422;-63
2022/08/05 13:42:20;;;;;;;;;2.50;1.25;;;;;;;;5074769;28;45470;-63
2022/08/05 13:44:45;;;;;;;;;3.50;3.00;;;;;;;;5074361;28;46728;-63
2022/08/05 13:47:11;;;;;;;;;3.00;3.00;;;;;;;;5074515;28;45519;-63
2022/08/05 13:49:36;;;;;;;;;3.00;3.00;;;;;;;;5074731;28;45410;-63
2022/08/05 13:52:11;;;;;;;;;2.75;2.50;;;;;;;;5074809;28;45404;-63
2022/08/05 13:54:37;;;;;;;;;2.50;2.50;;;;;;;;5074453;28;47597;-63
2022/08/05 13:57:02;;;;;;;;;3.00;3.00;;;;;;;;5074389;28;45388;-62
2022/08/05 13:59:27;;;;;;;;;7.00;7.00;;;;;;;;5074383;28;45374;-63
2022/08/05 14:01:53;;;;;;;;;9.00;9.00;;;;;;;;5074567;28;45280;-63
2022/08/05 14:07:02;;;;;;;;;2.00;2.00;;;;;;;;5073851;28;45593;-62
2022/08/05 14:09:27;;;;;;;;;3.00;3.00;;;;;;;;5073533;28;45295;-61
2022/08/05 14:11:52;;;;;;;;;2.75;2.75;;;;;;;;5055433;28;45585;-62
2022/08/05 14:14:18;;;;;;;;;2.25;2.25;;;;;;;;5055240;28;45874;-62
2022/08/05 14:16:43;;;;;;;;;2.75;2.75;;;;;;;;5073444;28;45463;-63
2022/08/05 14:19:08;;;;;;;;;2.00;2.00;;;;;;;;5073450;28;45306;-63
2022/08/05 14:21:34;;;;;;;;;2.00;2.00;;;;;;;;5073616;28;45339;-63
2022/08/05 14:23:59;;;;;;;;;3.50;3.50;;;;;;;;5073220;28;46603;-62
2022/08/05 14:26:24;;;;;;;;;3.75;2.00;;;;;;;;5073257;28;45450;-62
2022/08/05 14:28:49;;;;;;;;;2.25;2.25;;;;;;;;5073267;28;45489;-62
2022/08/05 14:31:14;;;;;;;;;3.25;3.25;;;;;;;;5073273;28;45381;-63
2022/08/05 14:33:39;;;;;;;;;3.75;3.00;;;;;;;;5072338;28;45519;-61
2022/08/05 14:36:05;;;;;;;;;3.25;3.25;;;;;;;;5073201;28;45384;-62
2022/08/05 14:38:30;;;;;;;;;1.25;1.25;;;;;;;;5073475;28;45361;-62
2022/08/05 14:40:55;;;;;;;;;5.25;3.75;;;;;;;;5073219;28;45474;-63
2022/08/05 14:43:20;;;;;;;;;3.50;3.50;;;;;;;;5073062;28;46136;-61
2022/08/05 14:45:46;;;;;;;;;4.00;4.00;;;;;;;;5073293;28;45417;-62
2022/08/05 14:48:11;;;;;;;;;2.25;2.25;;;;;;;;5073335;28;45480;-63